Time;durP1;ratioP1;P1;durP2;ratioP2;P2;SDS_P1;SDS_P2;PMS_P1;PMS_P2;Temp;Humidity;BMP_temperature;BMP_pressure;BME280_temperature;BME280_humidity;BME280_pressure;Samples;Min_cycle;Max_cycle;Signal;HPM_P1;HPM_P2
2023/04/26 00:01:18;;;;;;;79.65;12.45;;;;;;;;;;4969717;28;20053;-64
2023/04/26 00:03:45;;;;;;;95.30;11.75;;;;;;;;;;4969614;28;20130;-64
2023/04/26 00:06:13;;;;;;;98.13;12.82;;;;;;;;;;4969596;28;20098;-63
2023/04/26 00:08:41;;;;;;;107.82;12.70;;;;;;;;;;4971054;28;20081;-64
2023/04/26 00:11:07;;;;;;;80.88;11.48;;;;;;;;;;4969811;28;20489;-64
2023/04/26 00:13:35;;;;;;;115.18;14.63;;;;;;;;;;4969372;28;20651;-63
2023/04/26 00:16:02;;;;;;;60.55;11.23;;;;;;;;;;4968489;28;20465;-63
2023/04/26 00:18:30;;;;;;;83.00;12.05;;;;;;;;;;4969578;28;20544;-64
2023/04/26 00:20:57;;;;;;;126.07;14.63;;;;;;;;;;4969469;28;20046;-64
2023/04/26 00:23:23;;;;;;;57.45;9.57;;;;;;;;;;4970406;28;20544;-64
2023/04/26 00:25:50;;;;;;;51.55;8.93;;;;;;;;;;4969496;28;20046;-64
2023/04/26 00:28:16;;;;;;;100.88;12.05;;;;;;;;;;4969008;28;20045;-63
2023/04/26 00:30:47;;;;;;;70.18;8.60;;;;;;;;;;4969713;28;20097;-65
2023/04/26 00:33:14;;;;;;;79.55;9.38;;;;;;;;;;4965022;28;20047;-64
2023/04/26 00:35:40;;;;;;;100.55;10.95;;;;;;;;;;4952737;28;20046;-63
2023/04/26 00:38:07;;;;;;;54.13;7.95;;;;;;;;;;4969588;28;20047;-63
2023/04/26 00:40:34;;;;;;;90.03;10.75;;;;;;;;;;4969442;28;20042;-64
2023/04/26 00:43:01;;;;;;;74.85;9.23;;;;;;;;;;4969243;28;20046;-64
2023/04/26 00:45:28;;;;;;;59.80;7.65;;;;;;;;;;4969012;28;20038;-64
2023/04/26 00:47:55;;;;;;;72.50;8.73;;;;;;;;;;4969288;28;20055;-64
2023/04/26 00:50:22;;;;;;;107.15;10.35;;;;;;;;;;4969809;28;20109;-63
2023/04/26 00:52:49;;;;;;;49.75;7.40;;;;;;;;;;4951764;28;20042;-64
2023/04/26 00:55:16;;;;;;;86.88;9.68;;;;;;;;;;4969098;28;20058;-65
2023/04/26 00:57:44;;;;;;;93.13;10.80;;;;;;;;;;4968886;28;20073;-63
2023/04/26 01:00:11;;;;;;;77.45;8.52;;;;;;;;;;4967540;28;20551;-63
2023/04/26 01:02:38;;;;;;;68.28;7.38;;;;;;;;;;4969257;28;20059;-65
2023/04/26 01:05:05;;;;;;;108.88;10.30;;;;;;;;;;4968546;28;20475;-63
2023/04/26 01:07:32;;;;;;;49.42;5.25;;;;;;;;;;4967573;28;20109;-64
2023/04/26 01:10:03;;;;;;;50.92;5.25;;;;;;;;;;4968871;28;20053;-64
2023/04/26 01:12:31;;;;;;;92.18;7.32;;;;;;;;;;4968911;28;20078;-63
2023/04/26 01:14:58;;;;;;;80.15;6.90;;;;;;;;;;4968952;28;20055;-63
2023/04/26 01:17:25;;;;;;;54.55;5.05;;;;;;;;;;4969362;28;20051;-65
2023/04/26 01:19:51;;;;;;;86.78;7.45;;;;;;;;;;4968830;28;20437;-63
2023/04/26 01:22:18;;;;;;;63.55;6.03;;;;;;;;;;4968836;28;20042;-64
2023/04/26 01:24:47;;;;;;;67.50;6.28;;;;;;;;;;4969082;28;20078;-65
2023/04/26 01:27:13;;;;;;;100.60;8.27;;;;;;;;;;4968614;28;20045;-63
2023/04/26 01:29:40;;;;;;;56.78;5.53;;;;;;;;;;4968211;28;20058;-63
2023/04/26 01:32:06;;;;;;;55.80;5.43;;;;;;;;;;4968699;28;20118;-65
2023/04/26 01:34:33;;;;;;;68.10;6.25;;;;;;;;;;4968395;28;20501;-63
2023/04/26 01:37:00;;;;;;;41.50;4.57;;;;;;;;;;4951553;28;20054;-64
2023/04/26 01:39:27;;;;;;;65.15;6.20;;;;;;;;;;4965259;28;20503;-64
2023/04/26 01:41:57;;;;;;;119.88;10.20;;;;;;;;;;4966084;28;20043;-62
2023/04/26 01:44:23;;;;;;;53.70;5.60;;;;;;;;;;4969697;28;20148;-63
2023/04/26 01:46:50;;;;;;;59.75;6.25;;;;;;;;;;4968881;28;20053;-64
2023/04/26 01:49:17;;;;;;;109.93;9.65;;;;;;;;;;4951142;28;20458;-63
2023/04/26 01:51:45;;;;;;;66.07;6.80;;;;;;;;;;4968945;28;20129;-63
2023/04/26 01:54:12;;;;;;;86.80;8.35;;;;;;;;;;4967369;28;20095;-63
2023/04/26 01:56:38;;;;;;;106.10;9.80;;;;;;;;;;4969827;28;20097;-63
2023/04/26 01:59:05;;;;;;;88.70;8.23;;;;;;;;;;4968414;28;20078;-63
2023/04/26 02:01:32;;;;;;;229.73;17.55;;;;;;;;;;4955884;23;20055;-65
2023/04/26 02:03:58;;;;;;;113.03;10.40;;;;;;;;;;4950677;28;20055;-61
2023/04/26 02:06:25;;;;;;;59.55;7.15;;;;;;;;;;4968700;28;20093;-62
2023/04/26 02:08:52;;;;;;;75.68;7.70;;;;;;;;;;4968558;28;20085;-61
2023/04/26 02:11:20;;;;;;;90.57;8.63;;;;;;;;;;4948893;28;20050;-61
2023/04/26 02:13:46;;;;;;;81.97;8.77;;;;;;;;;;4953483;28;20059;-61
2023/04/26 02:16:15;;;;;;;56.97;7.57;;;;;;;;;;4954740;28;20540;-60
2023/04/26 02:18:43;;;;;;;119.53;12.38;;;;;;;;;;4954315;28;20047;-60
2023/04/26 02:21:10;;;;;;;88.78;9.98;;;;;;;;;;4971657;28;20050;-62
2023/04/26 02:23:37;;;;;;;75.18;8.10;;;;;;;;;;4972530;28;20065;-62
2023/04/26 02:26:04;;;;;;;116.65;11.30;;;;;;;;;;4954091;28;20051;-61
2023/04/26 02:28:31;;;;;;;36.70;5.40;;;;;;;;;;4972161;28;20078;-60
2023/04/26 02:30:57;;;;;;;64.15;8.30;;;;;;;;;;4954384;28;20066;-61
2023/04/26 02:33:24;;;;;;;105.93;10.68;;;;;;;;;;4953766;28;20137;-60
2023/04/26 02:35:51;;;;;;;83.07;9.27;;;;;;;;;;4972303;28;20102;-61
2023/04/26 02:38:18;;;;;;;66.25;7.63;;;;;;;;;;4954657;28;20047;-60
2023/04/26 02:40:44;;;;;;;122.75;12.07;;;;;;;;;;4965245;28;20043;-58
2023/04/26 02:43:11;;;;;;;67.00;8.15;;;;;;;;;;4953811;28;21217;-60
2023/04/26 02:45:42;;;;;;;97.80;9.77;;;;;;;;;;4954004;28;20439;-61
2023/04/26 02:48:10;;;;;;;104.07;10.85;;;;;;;;;;4937704;28;20058;-61
2023/04/26 02:50:38;;;;;;;71.97;9.10;;;;;;;;;;4955438;28;20091;-63
2023/04/26 02:53:04;;;;;;;79.30;9.05;;;;;;;;;;4953540;28;20054;-62
2023/04/26 02:55:32;;;;;;;87.35;9.85;;;;;;;;;;4970881;28;20082;-61
2023/04/26 02:57:58;;;;;;;42.17;7.57;;;;;;;;;;4953674;28;20049;-62
2023/04/26 03:00:26;;;;;;;58.00;7.97;;;;;;;;;;4962169;28;20105;-62
2023/04/26 03:02:53;;;;;;;115.90;11.88;;;;;;;;;;4970705;28;20519;-60
2023/04/26 03:05:20;;;;;;;56.38;8.88;;;;;;;;;;4954344;28;20070;-61
2023/04/26 03:07:46;;;;;;;69.53;8.70;;;;;;;;;;4953323;28;20077;-61
2023/04/26 03:10:13;;;;;;;99.20;10.85;;;;;;;;;;4970583;28;20427;-61
2023/04/26 03:12:40;;;;;;;90.43;11.65;;;;;;;;;;4963089;28;20053;-60
2023/04/26 03:15:07;;;;;;;120.95;13.93;;;;;;;;;;4962807;28;20058;-61
2023/04/26 03:17:34;;;;;;;119.85;14.80;;;;;;;;;;4953842;28;20508;-59
2023/04/26 03:20:03;;;;;;;34.25;9.68;;;;;;;;;;4951525;28;20457;-62
2023/04/26 03:22:29;;;;;;;73.25;12.80;;;;;;;;;;4959830;28;20058;-61
2023/04/26 03:24:56;;;;;;;120.57;14.80;;;;;;;;;;4970116;28;20126;-61
2023/04/26 03:27:25;;;;;;;93.53;14.00;;;;;;;;;;4949741;28;20065;-61
2023/04/26 03:29:52;;;;;;;85.55;12.77;;;;;;;;;;4954170;28;20051;-62
2023/04/26 03:32:18;;;;;;;117.82;15.98;;;;;;;;;;4953563;28;20142;-62
2023/04/26 03:34:47;;;;;;;65.25;11.45;;;;;;;;;;4963978;28;20054;-63
2023/04/26 03:37:14;;;;;;;72.50;12.15;;;;;;;;;;4937513;28;20057;-61
2023/04/26 03:39:43;;;;;;;116.75;14.52;;;;;;;;;;4952698;28;20134;-62
2023/04/26 03:42:09;;;;;;;88.38;13.20;;;;;;;;;;4952561;28;20069;-63
2023/04/26 03:44:37;;;;;;;116.82;14.60;;;;;;;;;;4958749;28;20122;-62
2023/04/26 03:47:04;;;;;;;126.75;13.95;;;;;;;;;;4943548;28;20082;-61
2023/04/26 03:49:31;;;;;;;95.75;11.48;;;;;;;;;;4958038;28;20046;-61
2023/04/26 03:51:58;;;;;;;82.68;11.45;;;;;;;;;;4950140;28;20386;-61
2023/04/26 03:54:24;;;;;;;94.70;11.43;;;;;;;;;;4946909;28;20461;-63
2023/04/26 03:56:51;;;;;;;99.13;12.52;;;;;;;;;;4948059;28;20050;-61
2023/04/26 03:59:18;;;;;;;72.97;10.75;;;;;;;;;;4951553;28;20133;-61
2023/04/26 04:01:46;;;;;;;169.25;15.75;;;;;;;;;;4951627;28;20781;-60
2023/04/26 04:04:12;;;;;;;58.45;9.55;;;;;;;;;;4950627;28;20137;-64
2023/04/26 04:06:40;;;;;;;81.03;10.93;;;;;;;;;;4961805;28;20050;-60
2023/04/26 04:09:07;;;;;;;154.23;15.27;;;;;;;;;;4961286;28;20146;-61
2023/04/26 04:11:34;;;;;;;61.75;10.30;;;;;;;;;;4957540;28;20054;-61
2023/04/26 04:14:01;;;;;;;60.08;10.50;;;;;;;;;;4952494;28;20074;-63
2023/04/26 04:16:28;;;;;;;137.73;15.48;;;;;;;;;;4951675;28;20067;-61
2023/04/26 04:18:55;;;;;;;62.17;9.88;;;;;;;;;;4949112;28;20552;-63
2023/04/26 04:21:22;;;;;;;76.05;11.38;;;;;;;;;;4952276;28;20074;-63
2023/04/26 04:23:49;;;;;;;96.43;13.43;;;;;;;;;;4951353;28;20485;-60
2023/04/26 04:26:16;;;;;;;69.10;13.40;;;;;;;;;;4947160;28;20146;-62
2023/04/26 04:28:44;;;;;;;91.25;13.88;;;;;;;;;;4952304;28;20051;-62
2023/04/26 04:31:11;;;;;;;177.82;21.13;;;;;;;;;;4950629;28;20493;-61
2023/04/26 04:33:38;;;;;;;70.10;12.60;;;;;;;;;;4951808;28;20050;-61
2023/04/26 04:36:07;;;;;;;99.60;12.57;;;;;;;;;;4960268;28;20050;-61
2023/04/26 04:38:34;;;;;;;107.15;12.88;;;;;;;;;;4967388;28;20074;-60
2023/04/26 04:41:03;;;;;;;92.43;12.18;;;;;;;;;;4951456;28;20059;-62
2023/04/26 04:43:30;;;;;;;55.85;8.13;;;;;;;;;;4952254;28;20050;-62
2023/04/26 04:45:57;;;;;;;68.60;9.88;;;;;;;;;;4960291;28;20054;-61
2023/04/26 04:48:24;;;;;;;56.17;8.43;;;;;;;;;;4951525;28;20122;-61
2023/04/26 04:50:50;;;;;;;72.53;9.85;;;;;;;;;;4952995;28;20742;-62
2023/04/26 04:53:18;;;;;;;107.63;11.80;;;;;;;;;;4951966;28;20486;-63
2023/04/26 04:55:44;;;;;;;64.78;8.43;;;;;;;;;;4969312;28;20043;-62
2023/04/26 04:58:13;;;;;;;80.25;9.82;;;;;;;;;;4959337;28;20230;-62
2023/04/26 05:00:40;;;;;;;121.22;12.43;;;;;;;;;;4947923;28;20066;-61
2023/04/26 05:03:14;;;;;;;105.47;10.82;;;;;;;;;;4950026;28;20497;-61
2023/04/26 05:05:41;;;;;;;70.05;8.75;;;;;;;;;;4952907;28;20047;-59
2023/04/26 05:08:08;;;;;;;91.45;9.60;;;;;;;;;;4969077;28;20057;-62
2023/04/26 05:10:34;;;;;;;80.82;9.23;;;;;;;;;;4961690;28;20432;-60
2023/04/26 05:13:01;;;;;;;82.20;9.20;;;;;;;;;;4951296;28;20635;-63
2023/04/26 05:15:28;;;;;;;83.35;9.60;;;;;;;;;;4951709;28;20047;-65
2023/04/26 05:17:55;;;;;;;88.95;9.30;;;;;;;;;;4968774;28;20081;-62
2023/04/26 05:20:22;;;;;;;52.38;7.00;;;;;;;;;;4952091;28;20126;-62
2023/04/26 05:22:49;;;;;;;95.55;9.50;;;;;;;;;;4959907;28;20050;-63
2023/04/26 05:25:16;;;;;;;81.82;9.05;;;;;;;;;;4951307;28;20124;-62
2023/04/26 05:27:46;;;;;;;76.75;9.07;;;;;;;;;;4951375;28;20436;-61
2023/04/26 05:30:29;;;;;;;55.05;7.20;;;;;;;;;;4959641;28;20121;-65
2023/04/26 05:33:14;;;;;;;111.72;11.32;;;;;;;;;;4968073;28;20066;-61
2023/04/26 05:35:53;;;;;;;58.25;7.95;;;;;;;;;;4951929;28;20105;-62
2023/04/26 05:38:20;;;;;;;79.55;8.57;;;;;;;;;;4959943;28;20093;-63
2023/04/26 05:40:47;;;;;;;107.57;10.60;;;;;;;;;;4952054;28;20654;-63
2023/04/26 05:43:14;;;;;;;87.65;9.32;;;;;;;;;;4949630;28;20540;-62
2023/04/26 05:45:49;;;;;;;70.95;8.20;;;;;;;;;;4944229;28;20057;-63
2023/04/26 05:48:15;;;;;;;56.45;7.18;;;;;;;;;;4961397;28;20141;-60
2023/04/26 05:50:42;;;;;;;81.28;8.60;;;;;;;;;;4973409;28;20051;-62
2023/04/26 05:53:08;;;;;;;122.13;11.38;;;;;;;;;;4954251;28;20063;-60
2023/04/26 05:55:35;;;;;;;50.22;6.60;;;;;;;;;;4950340;28;20054;-61
2023/04/26 05:58:03;;;;;;;79.60;9.48;;;;;;;;;;4961940;28;20047;-62
2023/04/26 06:00:30;;;;;;;87.45;8.90;;;;;;;;;;4954176;28;20046;-65
2023/04/26 06:02:57;;;;;;;82.40;8.77;;;;;;;;;;4954104;28;20047;-63
2023/04/26 06:05:24;;;;;;;60.67;7.28;;;;;;;;;;4952781;28;20051;-62
2023/04/26 06:07:51;;;;;;;89.95;9.63;;;;;;;;;;4971383;28;20053;-62
2023/04/26 06:10:18;;;;;;;53.05;6.93;;;;;;;;;;4954354;28;20039;-62
2023/04/26 06:12:45;;;;;;;101.45;8.95;;;;;;;;;;4954471;28;20741;-62
2023/04/26 06:15:12;;;;;;;113.22;9.90;;;;;;;;;;4954445;28;20047;-62
2023/04/26 06:17:40;;;;;;;64.53;7.07;;;;;;;;;;4944897;29;20047;-61
2023/04/26 06:20:11;;;;;;;63.42;6.95;;;;;;;;;;4953051;28;20090;-62
2023/04/26 06:22:37;;;;;;;109.65;9.70;;;;;;;;;;4944589;28;20074;-63
2023/04/26 06:25:04;;;;;;;72.22;7.53;;;;;;;;;;4949143;28;20047;-61
2023/04/26 06:27:32;;;;;;;68.43;7.05;;;;;;;;;;4954228;28;20043;-60
2023/04/26 06:29:58;;;;;;;124.32;11.63;;;;;;;;;;4971752;28;20046;-61
2023/04/26 06:32:25;;;;;;;59.90;6.28;;;;;;;;;;4948517;28;20142;-63
2023/04/26 06:34:53;;;;;;;89.80;9.63;;;;;;;;;;4953603;28;20461;-61
2023/04/26 06:37:20;;;;;;;114.65;10.75;;;;;;;;;;4953726;28;20121;-62
2023/04/26 06:39:47;;;;;;;72.57;6.88;;;;;;;;;;4953936;28;20054;-63
2023/04/26 06:42:14;;;;;;;85.10;8.13;;;;;;;;;;4962828;28;20078;-61
2023/04/26 06:45:07;;;;;;;105.22;10.18;;;;;;;;;;4890430;29;20467;-63
2023/04/26 06:47:34;;;;;;;108.82;10.10;;;;;;;;;;4890473;29;20139;-62
2023/04/26 06:50:02;;;;;;;148.02;12.20;;;;;;;;;;4891559;29;20065;-62
2023/04/26 06:52:28;;;;;;;75.32;7.30;;;;;;;;;;4887533;29;20052;-61
2023/04/26 06:54:55;;;;;;;59.97;6.57;;;;;;;;;;4891887;29;20064;-61
2023/04/26 06:57:23;;;;;;;111.05;10.05;;;;;;;;;;4890148;29;20037;-62
2023/04/26 06:59:50;;;;;;;392.65;43.72;;;;;;;;;;4887956;29;20080;-60
2023/04/26 07:02:16;;;;;;;66.75;7.85;;;;;;;;;;4874062;29;20733;-62
2023/04/26 07:04:43;;;;;;;140.88;12.38;;;;;;;;;;4890055;29;20053;-59
2023/04/26 07:07:10;;;;;;;75.72;8.05;;;;;;;;;;4859086;29;20083;-64
2023/04/26 07:09:39;;;;;;;115.57;10.95;;;;;;;;;;4890380;29;20207;-63
2023/04/26 07:12:06;;;;;;;178.13;14.75;;;;;;;;;;4891372;29;20079;-64
2023/04/26 07:14:34;;;;;;;59.00;6.70;;;;;;;;;;4892404;29;20428;-62
2023/04/26 07:17:03;;;;;;;87.20;8.65;;;;;;;;;;4890809;29;20052;-62
2023/04/26 07:19:30;;;;;;;135.15;12.18;;;;;;;;;;4891075;29;20053;-62
2023/04/26 07:21:56;;;;;;;43.55;7.15;;;;;;;;;;4928064;28;20138;-62
2023/04/26 07:24:23;;;;;;;68.18;6.80;;;;;;;;;;4970884;28;20094;-61
2023/04/26 07:26:50;;;;;;;106.53;9.77;;;;;;;;;;4954064;28;20055;-61
2023/04/26 07:29:17;;;;;;;69.40;7.15;;;;;;;;;;4970258;28;20400;-61
2023/04/26 07:31:44;;;;;;;95.53;9.07;;;;;;;;;;4947193;28;20059;-61
2023/04/26 07:34:11;;;;;;;121.85;10.18;;;;;;;;;;4949579;28;20054;-61
2023/04/26 07:36:38;;;;;;;55.78;5.78;;;;;;;;;;4946942;28;20452;-62
2023/04/26 07:39:05;;;;;;;152.77;12.82;;;;;;;;;;4958152;28;20038;-59
2023/04/26 07:41:32;;;;;;;126.85;10.75;;;;;;;;;;4961785;28;20461;-58
2023/04/26 07:43:58;;;;;;;49.38;5.75;;;;;;;;;;4969790;28;20046;-63
2023/04/26 07:46:25;;;;;;;75.82;7.13;;;;;;;;;;4969983;28;20047;-57
2023/04/26 07:48:51;;;;;;;179.68;14.20;;;;;;;;;;4963466;28;20050;-61
2023/04/26 07:51:18;;;;;;;128.43;11.10;;;;;;;;;;4951990;28;20451;-62
2023/04/26 07:53:44;;;;;;;64.50;6.57;;;;;;;;;;4950684;28;20051;-61
2023/04/26 07:56:11;;;;;;;97.78;8.25;;;;;;;;;;4969124;28;20488;-61
2023/04/26 07:58:38;;;;;;;57.15;5.93;;;;;;;;;;4969678;28;20050;-63
2023/04/26 08:01:05;;;;;;;123.43;10.07;;;;;;;;;;4951922;28;20054;-62
2023/04/26 08:03:31;;;;;;;77.95;6.72;;;;;;;;;;4949753;28;20046;-63
2023/04/26 08:05:59;;;;;;;82.55;7.82;;;;;;;;;;4933525;28;20055;-74
2023/04/26 08:08:27;;;;;;;52.38;5.05;;;;;;;;;;4950779;29;20446;-74
2023/04/26 08:10:54;;;;;;;116.65;10.00;;;;;;;;;;4916339;29;20172;-64
2023/04/26 08:13:21;;;;;;;56.38;5.03;;;;;;;;;;4950560;28;20063;-64
2023/04/26 08:15:47;;;;;;;54.58;5.28;;;;;;;;;;4917433;29;20471;-64
2023/04/26 08:18:14;;;;;;;116.32;9.30;;;;;;;;;;4932844;28;20102;-65
2023/04/26 08:20:41;;;;;;;74.57;6.82;;;;;;;;;;4951588;29;20523;-63
2023/04/26 08:23:07;;;;;;;86.80;7.53;;;;;;;;;;4950379;28;20067;-63
2023/04/26 08:25:34;;;;;;;107.97;8.65;;;;;;;;;;4933229;29;20501;-64
2023/04/26 08:28:01;;;;;;;66.70;6.00;;;;;;;;;;4950062;28;20051;-64
2023/04/26 08:30:28;;;;;;;53.70;6.40;;;;;;;;;;4950086;29;20042;-64
2023/04/26 08:32:55;;;;;;;110.15;8.82;;;;;;;;;;4942069;29;20094;-64
2023/04/26 08:35:22;;;;;;;71.97;6.25;;;;;;;;;;4950742;29;20059;-63
2023/04/26 08:37:48;;;;;;;64.93;6.20;;;;;;;;;;4950594;28;20040;-63
2023/04/26 08:40:18;;;;;;;92.18;8.10;;;;;;;;;;4950370;28;20055;-64
2023/04/26 08:42:45;;;;;;;107.38;8.68;;;;;;;;;;4950070;28;20099;-65
2023/04/26 08:45:13;;;;;;;111.07;9.05;;;;;;;;;;4949945;28;20409;-64
2023/04/26 08:47:40;;;;;;;87.60;8.15;;;;;;;;;;4950354;29;20050;-65
2023/04/26 08:50:07;;;;;;;55.78;4.93;;;;;;;;;;4950134;28;20070;-64
2023/04/26 08:52:34;;;;;;;82.03;6.88;;;;;;;;;;4949890;28;20058;-64
2023/04/26 08:55:01;;;;;;;62.72;5.95;;;;;;;;;;4932727;29;20039;-65
2023/04/26 08:57:31;;;;;;;72.28;6.43;;;;;;;;;;4945908;28;20050;-64
2023/04/26 08:59:57;;;;;;;65.25;5.68;;;;;;;;;;4945968;28;20053;-63
2023/04/26 09:02:24;;;;;;;72.53;7.13;;;;;;;;;;4958920;28;20404;-64
2023/04/26 09:04:51;;;;;;;94.03;8.73;;;;;;;;;;4968566;28;20516;-64
2023/04/26 09:07:38;;;;;;;60.05;6.15;;;;;;;;;;4951346;28;20050;-64
2023/04/26 09:10:05;;;;;;;70.85;6.65;;;;;;;;;;4951444;28;20039;-63
2023/04/26 09:12:31;;;;;;;63.50;6.00;;;;;;;;;;4969454;28;20059;-64
2023/04/26 09:14:59;;;;;;;69.78;6.00;;;;;;;;;;4969323;28;20047;-65
2023/04/26 09:17:26;;;;;;;93.90;7.80;;;;;;;;;;4968890;28;20414;-65
2023/04/26 09:19:53;;;;;;;66.03;6.53;;;;;;;;;;4969669;28;20051;-65
2023/04/26 09:22:28;;;;;;;63.30;5.82;;;;;;;;;;4949968;28;20119;-64
2023/04/26 09:24:55;;;;;;;88.75;7.57;;;;;;;;;;4947391;28;20592;-63
2023/04/26 09:27:30;;;;;;;62.58;5.95;;;;;;;;;;4971597;28;20046;-64
2023/04/26 09:30:04;;;;;;;139.73;10.88;;;;;;;;;;4970970;28;20488;-64
2023/04/26 09:32:50;;;;;;;58.28;5.90;;;;;;;;;;4971104;28;20129;-65
2023/04/26 09:49:16;;;;;;;73.13;6.43;;;;;;;;;;4942602;29;20058;-60
2023/04/26 09:51:58;;;;;;;70.53;6.57;;;;;;;;;;4934613;29;20078;-60
2023/04/26 09:54:36;;;;;;;52.85;5.10;;;;;;;;;;4934456;29;20048;-58
2023/04/26 09:57:03;;;;;;;102.70;8.15;;;;;;;;;;4931377;29;20413;-59
2023/04/26 09:59:40;;;;;;;50.30;4.65;;;;;;;;;;4934727;29;20071;-61
2023/04/26 10:02:17;;;;;;;49.92;4.53;;;;;;;;;;4933228;29;20043;-56
2023/04/26 10:04:46;;;;;;;106.15;8.52;;;;;;;;;;4919997;29;20044;-59
2023/04/26 10:07:16;;;;;;;74.63;6.22;;;;;;;;;;4916763;29;20399;-60
2023/04/26 10:09:43;;;;;;;90.47;7.60;;;;;;;;;;4940919;29;20052;-64
2023/04/26 10:12:10;;;;;;;78.63;6.57;;;;;;;;;;4934331;29;20044;-63
2023/04/26 10:14:37;;;;;;;63.35;5.75;;;;;;;;;;4934861;29;20082;-57
2023/04/26 10:17:04;;;;;;;107.47;8.30;;;;;;;;;;4933422;29;20043;-62
2023/04/26 10:19:31;;;;;;;31.48;4.82;;;;;;;;;;4934003;29;20098;-60
2023/04/26 10:22:00;;;;;;;62.35;6.07;;;;;;;;;;4934036;29;20067;-59
2023/04/26 10:24:27;;;;;;;75.15;6.78;;;;;;;;;;4909495;29;20115;-58
2023/04/26 10:26:56;;;;;;;77.10;7.00;;;;;;;;;;4932995;29;20078;-59
2023/04/26 10:29:23;;;;;;;53.72;6.18;;;;;;;;;;4933583;29;20055;-59
2023/04/26 10:32:05;;;;;;;90.13;8.05;;;;;;;;;;4932022;29;20044;-62
2023/04/26 10:34:33;;;;;;;59.17;5.75;;;;;;;;;;4928480;29;20047;-60
2023/04/26 10:37:12;;;;;;;62.38;5.68;;;;;;;;;;4933222;29;20043;-57
2023/04/26 10:39:39;;;;;;;64.13;5.93;;;;;;;;;;4932355;29;20075;-56
2023/04/26 10:42:24;;;;;;;99.63;9.00;;;;;;;;;;4932304;29;20075;-60
2023/04/26 10:44:53;;;;;;;67.88;6.72;;;;;;;;;;4934274;29;20075;-61
2023/04/26 10:47:26;;;;;;;49.78;5.13;;;;;;;;;;4932978;29;20167;-56
2023/04/26 10:50:00;;;;;;;87.75;7.63;;;;;;;;;;4931923;29;20103;-60
2023/04/26 10:52:30;;;;;;;39.13;3.95;;;;;;;;;;4933468;29;20043;-58
2023/04/26 10:54:57;;;;;;;61.45;5.75;;;;;;;;;;4927107;29;20134;-63
2023/04/26 10:57:43;;;;;;;103.68;8.52;;;;;;;;;;4933051;29;20370;-61
2023/04/26 11:00:12;;;;;;;82.95;7.13;;;;;;;;;;4923568;29;20056;-63
2023/04/26 11:02:55;;;;;;;62.70;5.43;;;;;;;;;;4940259;29;20086;-66
2023/04/26 11:05:39;;;;;;;77.93;6.60;;;;;;;;;;4914944;29;20047;-62
2023/04/26 11:08:08;;;;;;;53.63;5.03;;;;;;;;;;4906053;29;20110;-58
2023/04/26 11:10:37;;;;;;;46.22;4.38;;;;;;;;;;4933264;29;20043;-57
2023/04/26 11:13:04;;;;;;;99.85;8.13;;;;;;;;;;4932618;29;20126;-58
2023/04/26 11:15:31;;;;;;;85.53;7.20;;;;;;;;;;4946748;28;20054;-58
2023/04/26 11:18:00;;;;;;;77.32;6.22;;;;;;;;;;4933565;29;20061;-62
2023/04/26 11:20:29;;;;;;;47.15;4.28;;;;;;;;;;4933043;29;20043;-55
2023/04/26 11:22:55;;;;;;;68.15;6.20;;;;;;;;;;4932701;29;20047;-60
2023/04/26 11:25:23;;;;;;;75.28;6.57;;;;;;;;;;4915069;29;20054;-60
2023/04/26 11:27:50;;;;;;;93.63;8.07;;;;;;;;;;4940832;29;20465;-61
2023/04/26 11:30:20;;;;;;;87.32;6.88;;;;;;;;;;4931438;29;20077;-58
2023/04/26 11:32:46;;;;;;;66.55;5.32;;;;;;;;;;4932649;29;20134;-59
2023/04/26 11:35:14;;;;;;;81.22;7.00;;;;;;;;;;4932798;29;20123;-61
2023/04/26 11:37:40;;;;;;;81.93;6.53;;;;;;;;;;4932594;29;20054;-56
2023/04/26 11:40:13;;;;;;;78.05;5.82;;;;;;;;;;4932237;29;20115;-59
2023/04/26 11:42:41;;;;;;;109.85;8.65;;;;;;;;;;4935531;29;20095;-59
2023/04/26 11:45:07;;;;;;;146.25;11.05;;;;;;;;;;4930342;29;20052;-55
2023/04/26 11:47:34;;;;;;;107.68;8.10;;;;;;;;;;4937871;29;20606;-58
2023/04/26 11:50:02;;;;;;;62.00;5.18;;;;;;;;;;4944658;28;20048;-57
2023/04/26 11:52:29;;;;;;;44.50;4.10;;;;;;;;;;4943200;29;20062;-56
2023/04/26 11:55:05;;;;;;;81.95;6.47;;;;;;;;;;4950593;29;20051;-59
2023/04/26 11:57:32;;;;;;;33.08;3.47;;;;;;;;;;4949487;29;20039;-59
2023/04/26 12:00:13;;;;;;;77.72;7.20;;;;;;;;;;4949535;29;20477;-66
2023/04/26 12:02:43;;;;;;;55.30;5.45;;;;;;;;;;4949871;29;20044;-60
2023/04/26 12:05:10;;;;;;;78.70;6.70;;;;;;;;;;4950034;28;20109;-58
2023/04/26 12:07:36;;;;;;;123.03;11.18;;;;;;;;;;4950552;29;20047;-60
2023/04/26 12:10:12;;;;;;;64.20;5.72;;;;;;;;;;4950779;29;20154;-58
2023/04/26 12:12:42;;;;;;;78.00;6.53;;;;;;;;;;4950747;28;20043;-59
2023/04/26 12:15:10;;;;;;;118.85;9.25;;;;;;;;;;4961808;28;20139;-57
2023/04/26 12:17:39;;;;;;;73.18;9.63;;;;;;;;;;4943857;29;20477;-58
2023/04/26 12:20:09;;;;;;;60.88;5.93;;;;;;;;;;4950498;29;20047;-63
2023/04/26 12:22:36;;;;;;;67.63;6.82;;;;;;;;;;4947115;29;20058;-60
2023/04/26 12:25:04;;;;;;;78.13;7.97;;;;;;;;;;4950488;28;20051;-65
2023/04/26 12:27:31;;;;;;;80.35;7.47;;;;;;;;;;4950396;28;20046;-64
2023/04/26 12:29:57;;;;;;;45.72;6.40;;;;;;;;;;4953470;28;20321;-58
2023/04/26 12:32:25;;;;;;;50.10;5.32;;;;;;;;;;4950457;28;20047;-58
2023/04/26 12:34:51;;;;;;;86.15;8.60;;;;;;;;;;4950970;28;20043;-60
2023/04/26 12:37:18;;;;;;;85.07;7.30;;;;;;;;;;4949791;28;20432;-59
2023/04/26 12:39:45;;;;;;;57.75;5.82;;;;;;;;;;4950739;29;20031;-59
2023/04/26 12:42:12;;;;;;;104.15;8.20;;;;;;;;;;4950054;29;20082;-61
2023/04/26 12:44:38;;;;;;;63.72;5.95;;;;;;;;;;4950848;29;20667;-56
2023/04/26 12:47:05;;;;;;;88.75;7.85;;;;;;;;;;4949546;28;20075;-59
2023/04/26 12:49:32;;;;;;;73.80;6.78;;;;;;;;;;4949016;28;20057;-60
2023/04/26 12:51:58;;;;;;;47.10;5.75;;;;;;;;;;4950337;29;20433;-59
2023/04/26 12:54:25;;;;;;;49.20;5.20;;;;;;;;;;4963905;28;20074;-59
2023/04/26 12:56:52;;;;;;;76.30;6.53;;;;;;;;;;4950697;28;20043;-61
2023/04/26 12:59:18;;;;;;;89.28;7.57;;;;;;;;;;4950184;29;20051;-61
2023/04/26 13:01:45;;;;;;;129.27;10.70;;;;;;;;;;4949717;28;20047;-56
2023/04/26 13:04:11;;;;;;;67.25;6.82;;;;;;;;;;4946525;28;20051;-58
2023/04/26 13:06:38;;;;;;;120.65;10.13;;;;;;;;;;4949681;28;20050;-60
2023/04/26 13:09:07;;;;;;;105.70;10.15;;;;;;;;;;4947590;28;20062;-57
2023/04/26 13:11:33;;;;;;;58.28;6.60;;;;;;;;;;4949389;29;20505;-56
2023/04/26 13:14:00;;;;;;;76.05;7.93;;;;;;;;;;4949536;29;20047;-57
2023/04/26 13:16:27;;;;;;;86.60;8.40;;;;;;;;;;4963007;28;20554;-56
2023/04/26 13:18:54;;;;;;;59.63;5.50;;;;;;;;;;4950126;29;20074;-57
2023/04/26 13:21:21;;;;;;;105.40;9.25;;;;;;;;;;4949754;29;20051;-60
2023/04/26 13:23:48;;;;;;;42.28;4.35;;;;;;;;;;4951023;29;20834;-60
2023/04/26 13:26:16;;;;;;;75.07;7.05;;;;;;;;;;4949555;28;20062;-61
2023/04/26 13:28:48;;;;;;;85.20;8.32;;;;;;;;;;4949923;29;20545;-59
2023/04/26 13:31:16;;;;;;;78.75;7.20;;;;;;;;;;4949686;29;20055;-59
2023/04/26 13:33:43;;;;;;;71.57;5.82;;;;;;;;;;4949660;28;20474;-59
2023/04/26 13:36:10;;;;;;;93.95;8.10;;;;;;;;;;4949707;29;20053;-60
2023/04/26 13:38:36;;;;;;;85.82;7.53;;;;;;;;;;4964600;28;20063;-61
2023/04/26 13:41:03;;;;;;;103.25;12.95;;;;;;;;;;4949056;28;20078;-64
2023/04/26 13:43:30;;;;;;;68.25;10.43;;;;;;;;;;4949473;29;20054;-59
2023/04/26 13:45:56;;;;;;;46.25;5.07;;;;;;;;;;4949836;28;20039;-61
2023/04/26 13:48:23;;;;;;;68.40;6.60;;;;;;;;;;4949757;28;23606;-62
2023/04/26 13:50:49;;;;;;;84.30;8.43;;;;;;;;;;4950423;29;20070;-55
2023/04/26 13:53:16;;;;;;;64.68;6.13;;;;;;;;;;4949732;29;20389;-59
2023/04/26 13:55:43;;;;;;;63.35;6.13;;;;;;;;;;4931847;29;20102;-56
2023/04/26 13:58:09;;;;;;;128.70;10.82;;;;;;;;;;4949258;29;20738;-57
2023/04/26 14:00:36;;;;;;;51.28;5.10;;;;;;;;;;4950069;29;20062;-59
2023/04/26 14:03:03;;;;;;;65.35;6.47;;;;;;;;;;4959430;28;20050;-62
2023/04/26 14:05:30;;;;;;;89.75;8.32;;;;;;;;;;4949909;28;20043;-58
2023/04/26 14:07:57;;;;;;;45.90;5.03;;;;;;;;;;4926218;29;20047;-61
2023/04/26 14:10:24;;;;;;;43.25;5.10;;;;;;;;;;4965376;28;20552;-64
2023/04/26 14:12:50;;;;;;;76.57;7.30;;;;;;;;;;4952956;29;20134;-60
2023/04/26 14:15:17;;;;;;;105.32;8.52;;;;;;;;;;4952962;28;20134;-58
2023/04/26 14:17:45;;;;;;;76.13;7.45;;;;;;;;;;4950240;29;20063;-59
2023/04/26 14:20:12;;;;;;;97.32;8.50;;;;;;;;;;4952682;28;20044;-57
2023/04/26 14:22:39;;;;;;;66.22;6.60;;;;;;;;;;4955689;28;20470;-60
2023/04/26 14:25:05;;;;;;;67.22;7.35;;;;;;;;;;4952758;28;20051;-56
2023/04/26 14:27:33;;;;;;;107.63;9.65;;;;;;;;;;4952971;28;20118;-63
2023/04/26 14:30:00;;;;;;;55.75;5.75;;;;;;;;;;4943212;29;20772;-63
2023/04/26 14:32:26;;;;;;;58.45;5.53;;;;;;;;;;4952689;29;20051;-58
2023/04/26 14:34:53;;;;;;;96.97;7.80;;;;;;;;;;4952149;28;20050;-69
2023/04/26 14:37:21;;;;;;;48.97;5.13;;;;;;;;;;4952416;29;20040;-60
2023/04/26 14:39:48;;;;;;;84.88;7.32;;;;;;;;;;4952296;28;20467;-58
2023/04/26 14:42:15;;;;;;;111.55;9.13;;;;;;;;;;4952122;29;20405;-60